Apple Springs, Texas
Current Conditions -  °F | °C
As of 4:53 AM on Saturday 01 Nov 2014 (Local Time) from KLFK Reporting Station
Clear Clear  
Wind Chill: 45°   Ceiling: Unl
Heat Index: 48°   Visibility: 10mi
Dew Point: 35°   Wind: 6mph
Humidity: 61%   Direction: 30°NNE
Pressure: 30.34"   Gusts: NA
Location:  31.22°N, 94.97°W
Report Text: KLFK 010953Z AUTO 03005KT 10SM CLR 09/02 A3034 RMK AO2 SLP271 T00890017
Loading
Personal Weather Stations






























Interactive Weather Map New forecast layout! Learn more

10-Day Weather Forecast

Advertisements
Track Severe Weather on mobile